sensor_id;sensor_type;location;lat;lon;timestamp;P1;durP1;ratioP1;P2;durP2;ratioP2
16689;SDS011;8458;52.220;9.884;2023-01-09T00:02:25;0.60;;;0.60;;
16689;SDS011;8458;52.220;9.884;2023-01-09T00:04:52;0.70;;;0.70;;
16689;SDS011;8458;52.220;9.884;2023-01-09T00:07:18;0.67;;;0.67;;
16689;SDS011;8458;52.220;9.884;2023-01-09T00:09:45;0.97;;;0.77;;
16689;SDS011;8458;52.220;9.884;2023-01-09T00:12:12;0.87;;;0.70;;
16689;SDS011;8458;52.220;9.884;2023-01-09T00:14:38;0.70;;;0.70;;
16689;SDS011;8458;52.220;9.884;2023-01-09T00:17:04;0.93;;;0.60;;
16689;SDS011;8458;52.220;9.884;2023-01-09T00:19:32;0.60;;;0.60;;
16689;SDS011;8458;52.220;9.884;2023-01-09T00:21:59;0.53;;;0.50;;
16689;SDS011;8458;52.220;9.884;2023-01-09T00:24:25;0.67;;;0.50;;
16689;SDS011;8458;52.220;9.884;2023-01-09T00:26:52;0.67;;;0.50;;
16689;SDS011;8458;52.220;9.884;2023-01-09T00:29:18;0.50;;;0.43;;
16689;SDS011;8458;52.220;9.884;2023-01-09T00:31:45;0.70;;;0.50;;
16689;SDS011;8458;52.220;9.884;2023-01-09T00:34:11;0.40;;;0.40;;
16689;SDS011;8458;52.220;9.884;2023-01-09T00:36:39;0.60;;;0.43;;
16689;SDS011;8458;52.220;9.884;2023-01-09T00:39:05;0.60;;;0.50;;
16689;SDS011;8458;52.220;9.884;2023-01-09T00:41:33;0.57;;;0.57;;
16689;SDS011;8458;52.220;9.884;2023-01-09T00:44:05;0.80;;;0.60;;
16689;SDS011;8458;52.220;9.884;2023-01-09T00:46:36;0.70;;;0.50;;
16689;SDS011;8458;52.220;9.884;2023-01-09T00:49:06;0.90;;;0.57;;
16689;SDS011;8458;52.220;9.884;2023-01-09T00:51:34;1.53;;;0.50;;
16689;SDS011;8458;52.220;9.884;2023-01-09T00:54:03;1.37;;;0.60;;
16689;SDS011;8458;52.220;9.884;2023-01-09T00:56:30;0.60;;;0.50;;
16689;SDS011;8458;52.220;9.884;2023-01-09T00:58:58;0.80;;;0.70;;
16689;SDS011;8458;52.220;9.884;2023-01-09T01:01:25;1.83;;;0.50;;
16689;SDS011;8458;52.220;9.884;2023-01-09T01:03:51;1.97;;;0.70;;
16689;SDS011;8458;52.220;9.884;2023-01-09T01:06:18;0.60;;;0.60;;
16689;SDS011;8458;52.220;9.884;2023-01-09T01:09:03;0.60;;;0.60;;
16689;SDS011;8458;52.220;9.884;2023-01-09T01:11:30;0.57;;;0.53;;
16689;SDS011;8458;52.220;9.884;2023-01-09T01:13:57;0.70;;;0.50;;
16689;SDS011;8458;52.220;9.884;2023-01-09T01:16:24;0.60;;;0.50;;
16689;SDS011;8458;52.220;9.884;2023-01-09T01:18:51;1.50;;;0.50;;
16689;SDS011;8458;52.220;9.884;2023-01-09T01:21:17;0.57;;;0.47;;
16689;SDS011;8458;52.220;9.884;2023-01-09T01:23:44;0.73;;;0.50;;
16689;SDS011;8458;52.220;9.884;2023-01-09T01:26:14;0.93;;;0.40;;
16689;SDS011;8458;52.220;9.884;2023-01-09T01:28:41;0.80;;;0.50;;
16689;SDS011;8458;52.220;9.884;2023-01-09T01:31:08;0.50;;;0.50;;
16689;SDS011;8458;52.220;9.884;2023-01-09T01:33:41;1.23;;;0.63;;
16689;SDS011;8458;52.220;9.884;2023-01-09T01:36:07;0.50;;;0.50;;
16689;SDS011;8458;52.220;9.884;2023-01-09T01:38:34;0.47;;;0.47;;
16689;SDS011;8458;52.220;9.884;2023-01-09T01:41:01;0.60;;;0.60;;
16689;SDS011;8458;52.220;9.884;2023-01-09T01:46:19;1.10;;;0.50;;
16689;SDS011;8458;52.220;9.884;2023-01-09T01:48:46;0.80;;;0.50;;
16689;SDS011;8458;52.220;9.884;2023-01-09T01:51:15;0.60;;;0.60;;
16689;SDS011;8458;52.220;9.884;2023-01-09T01:53:46;0.63;;;0.60;;
16689;SDS011;8458;52.220;9.884;2023-01-09T01:56:16;0.60;;;0.60;;
16689;SDS011;8458;52.220;9.884;2023-01-09T01:58:46;0.70;;;0.60;;
16689;SDS011;8458;52.220;9.884;2023-01-09T02:01:16;3.57;;;0.70;;
16689;SDS011;8458;52.220;9.884;2023-01-09T02:03:43;0.63;;;0.63;;
16689;SDS011;8458;52.220;9.884;2023-01-09T02:06:11;0.83;;;0.63;;
16689;SDS011;8458;52.220;9.884;2023-01-09T02:08:38;0.90;;;0.60;;
16689;SDS011;8458;52.220;9.884;2023-01-09T02:11:05;0.93;;;0.70;;
16689;SDS011;8458;52.220;9.884;2023-01-09T02:13:32;1.43;;;0.80;;
16689;SDS011;8458;52.220;9.884;2023-01-09T02:16:06;0.90;;;0.67;;
16689;SDS011;8458;52.220;9.884;2023-01-09T02:18:46;0.60;;;0.60;;
16689;SDS011;8458;52.220;9.884;2023-01-09T02:21:20;0.60;;;0.60;;
16689;SDS011;8458;52.220;9.884;2023-01-09T02:24:03;1.90;;;0.90;;
16689;SDS011;8458;52.220;9.884;2023-01-09T02:26:47;1.67;;;0.80;;
16689;SDS011;8458;52.220;9.884;2023-01-09T02:29:33;1.37;;;0.70;;
16689;SDS011;8458;52.220;9.884;2023-01-09T02:32:24;1.23;;;0.73;;
16689;SDS011;8458;52.220;9.884;2023-01-09T02:35:05;0.83;;;0.67;;
16689;SDS011;8458;52.220;9.884;2023-01-09T02:37:40;0.80;;;0.80;;
16689;SDS011;8458;52.220;9.884;2023-01-09T02:40:18;0.70;;;0.70;;
16689;SDS011;8458;52.220;9.884;2023-01-09T02:42:50;0.70;;;0.70;;
16689;SDS011;8458;52.220;9.884;2023-01-09T02:45:18;0.70;;;0.70;;
16689;SDS011;8458;52.220;9.884;2023-01-09T02:47:46;1.27;;;0.80;;
16689;SDS011;8458;52.220;9.884;2023-01-09T02:50:15;0.90;;;0.90;;
16689;SDS011;8458;52.220;9.884;2023-01-09T02:55:46;0.90;;;0.90;;
16689;SDS011;8458;52.220;9.884;2023-01-09T02:58:19;1.00;;;0.80;;
16689;SDS011;8458;52.220;9.884;2023-01-09T03:01:00;1.20;;;0.80;;
16689;SDS011;8458;52.220;9.884;2023-01-09T03:03:37;1.03;;;0.80;;
16689;SDS011;8458;52.220;9.884;2023-01-09T03:06:12;0.90;;;0.90;;
16689;SDS011;8458;52.220;9.884;2023-01-09T03:08:46;1.93;;;1.00;;
16689;SDS011;8458;52.220;9.884;2023-01-09T03:11:16;0.80;;;0.80;;
16689;SDS011;8458;52.220;9.884;2023-01-09T03:13:43;1.30;;;0.97;;
16689;SDS011;8458;52.220;9.884;2023-01-09T03:16:13;0.97;;;0.80;;
16689;SDS011;8458;52.220;9.884;2023-01-09T03:18:47;1.23;;;1.00;;
16689;SDS011;8458;52.220;9.884;2023-01-09T03:21:15;1.13;;;1.00;;
16689;SDS011;8458;52.220;9.884;2023-01-09T03:23:46;1.27;;;1.13;;
16689;SDS011;8458;52.220;9.884;2023-01-09T03:26:13;1.00;;;1.00;;
16689;SDS011;8458;52.220;9.884;2023-01-09T03:28:40;1.27;;;1.00;;
16689;SDS011;8458;52.220;9.884;2023-01-09T03:31:07;1.33;;;0.90;;
16689;SDS011;8458;52.220;9.884;2023-01-09T03:33:34;1.60;;;1.00;;
16689;SDS011;8458;52.220;9.884;2023-01-09T03:36:02;1.23;;;1.00;;
16689;SDS011;8458;52.220;9.884;2023-01-09T03:38:29;1.20;;;1.00;;
16689;SDS011;8458;52.220;9.884;2023-01-09T03:40:56;1.13;;;1.00;;
16689;SDS011;8458;52.220;9.884;2023-01-09T03:43:22;1.50;;;1.40;;
16689;SDS011;8458;52.220;9.884;2023-01-09T03:45:48;1.00;;;1.00;;
16689;SDS011;8458;52.220;9.884;2023-01-09T03:48:15;1.43;;;1.33;;
16689;SDS011;8458;52.220;9.884;2023-01-09T03:50:41;1.40;;;1.30;;
16689;SDS011;8458;52.220;9.884;2023-01-09T03:53:11;1.43;;;1.33;;
16689;SDS011;8458;52.220;9.884;2023-01-09T03:55:38;1.00;;;1.00;;
16689;SDS011;8458;52.220;9.884;2023-01-09T03:58:04;1.30;;;1.20;;
16689;SDS011;8458;52.220;9.884;2023-01-09T04:00:31;1.30;;;1.20;;
16689;SDS011;8458;52.220;9.884;2023-01-09T04:02:57;1.20;;;1.10;;
16689;SDS011;8458;52.220;9.884;2023-01-09T04:05:23;1.17;;;1.00;;
16689;SDS011;8458;52.220;9.884;2023-01-09T04:07:50;1.13;;;1.13;;
16689;SDS011;8458;52.220;9.884;2023-01-09T04:10:18;1.07;;;0.97;;
16689;SDS011;8458;52.220;9.884;2023-01-09T04:12:44;1.00;;;0.93;;
16689;SDS011;8458;52.220;9.884;2023-01-09T04:15:11;1.30;;;0.90;;
16689;SDS011;8458;52.220;9.884;2023-01-09T04:17:37;0.90;;;0.90;;
16689;SDS011;8458;52.220;9.884;2023-01-09T04:20:04;0.97;;;0.97;;
16689;SDS011;8458;52.220;9.884;2023-01-09T04:22:31;0.90;;;0.90;;
16689;SDS011;8458;52.220;9.884;2023-01-09T04:24:58;1.03;;;0.93;;
16689;SDS011;8458;52.220;9.884;2023-01-09T04:27:26;0.90;;;0.90;;
16689;SDS011;8458;52.220;9.884;2023-01-09T04:29:52;1.27;;;0.83;;
16689;SDS011;8458;52.220;9.884;2023-01-09T04:32:19;0.80;;;0.80;;
16689;SDS011;8458;52.220;9.884;2023-01-09T04:34:45;1.07;;;0.80;;
16689;SDS011;8458;52.220;9.884;2023-01-09T04:37:12;0.80;;;0.80;;
16689;SDS011;8458;52.220;9.884;2023-01-09T04:39:38;1.20;;;0.80;;
16689;SDS011;8458;52.220;9.884;2023-01-09T04:42:07;0.77;;;0.77;;
16689;SDS011;8458;52.220;9.884;2023-01-09T04:44:35;0.90;;;0.90;;
16689;SDS011;8458;52.220;9.884;2023-01-09T04:47:01;0.90;;;0.90;;
16689;SDS011;8458;52.220;9.884;2023-01-09T04:49:28;1.00;;;1.00;;
16689;SDS011;8458;52.220;9.884;2023-01-09T04:51:54;1.30;;;1.20;;
16689;SDS011;8458;52.220;9.884;2023-01-09T04:54:21;1.10;;;1.10;;
16689;SDS011;8458;52.220;9.884;2023-01-09T04:56:48;1.30;;;1.20;;
16689;SDS011;8458;52.220;9.884;2023-01-09T04:59:14;1.50;;;1.40;;
16689;SDS011;8458;52.220;9.884;2023-01-09T05:01:42;1.10;;;1.10;;
16689;SDS011;8458;52.220;9.884;2023-01-09T05:04:09;1.17;;;1.13;;
16689;SDS011;8458;52.220;9.884;2023-01-09T05:06:37;1.20;;;1.10;;
16689;SDS011;8458;52.220;9.884;2023-01-09T05:09:03;1.03;;;1.03;;
16689;SDS011;8458;52.220;9.884;2023-01-09T05:11:30;1.10;;;1.00;;
16689;SDS011;8458;52.220;9.884;2023-01-09T05:13:56;0.87;;;0.87;;
16689;SDS011;8458;52.220;9.884;2023-01-09T05:16:22;0.97;;;0.90;;
16689;SDS011;8458;52.220;9.884;2023-01-09T05:18:50;1.00;;;0.70;;
16689;SDS011;8458;52.220;9.884;2023-01-09T05:21:20;0.83;;;0.50;;
16689;SDS011;8458;52.220;9.884;2023-01-09T05:23:47;0.80;;;0.50;;
16689;SDS011;8458;52.220;9.884;2023-01-09T05:26:13;0.50;;;0.50;;
16689;SDS011;8458;52.220;9.884;2023-01-09T05:28:40;0.60;;;0.60;;
16689;SDS011;8458;52.220;9.884;2023-01-09T05:31:06;0.70;;;0.60;;
16689;SDS011;8458;52.220;9.884;2023-01-09T05:33:33;0.50;;;0.50;;
16689;SDS011;8458;52.220;9.884;2023-01-09T05:36:00;0.60;;;0.50;;
16689;SDS011;8458;52.220;9.884;2023-01-09T05:38:27;0.60;;;0.60;;
16689;SDS011;8458;52.220;9.884;2023-01-09T05:40:53;0.50;;;0.50;;
16689;SDS011;8458;52.220;9.884;2023-01-09T05:43:20;0.50;;;0.50;;
16689;SDS011;8458;52.220;9.884;2023-01-09T05:45:46;0.40;;;0.40;;
16689;SDS011;8458;52.220;9.884;2023-01-09T05:48:13;0.50;;;0.50;;
16689;SDS011;8458;52.220;9.884;2023-01-09T05:50:39;0.60;;;0.60;;
16689;SDS011;8458;52.220;9.884;2023-01-09T05:53:07;0.67;;;0.67;;
16689;SDS011;8458;52.220;9.884;2023-01-09T05:55:33;0.90;;;0.90;;
16689;SDS011;8458;52.220;9.884;2023-01-09T05:58:00;1.03;;;0.93;;
16689;SDS011;8458;52.220;9.884;2023-01-09T06:00:26;0.83;;;0.83;;
16689;SDS011;8458;52.220;9.884;2023-01-09T06:02:53;0.80;;;0.80;;
16689;SDS011;8458;52.220;9.884;2023-01-09T06:05:19;0.90;;;0.90;;
16689;SDS011;8458;52.220;9.884;2023-01-09T06:07:46;1.10;;;1.10;;
16689;SDS011;8458;52.220;9.884;2023-01-09T06:10:14;1.20;;;1.10;;
16689;SDS011;8458;52.220;9.884;2023-01-09T06:12:41;1.13;;;1.03;;
16689;SDS011;8458;52.220;9.884;2023-01-09T06:15:12;1.67;;;1.57;;
16689;SDS011;8458;52.220;9.884;2023-01-09T06:17:40;1.40;;;1.40;;
16689;SDS011;8458;52.220;9.884;2023-01-09T06:20:07;1.60;;;1.50;;
16689;SDS011;8458;52.220;9.884;2023-01-09T06:22:34;1.60;;;1.40;;
16689;SDS011;8458;52.220;9.884;2023-01-09T06:25:01;2.40;;;1.73;;
16689;SDS011;8458;52.220;9.884;2023-01-09T06:27:29;1.63;;;1.53;;
16689;SDS011;8458;52.220;9.884;2023-01-09T06:29:56;1.70;;;1.60;;
16689;SDS011;8458;52.220;9.884;2023-01-09T06:32:22;1.70;;;1.60;;
16689;SDS011;8458;52.220;9.884;2023-01-09T06:34:49;1.77;;;1.20;;
16689;SDS011;8458;52.220;9.884;2023-01-09T06:37:15;1.80;;;1.50;;
16689;SDS011;8458;52.220;9.884;2023-01-09T06:39:42;1.70;;;1.33;;
16689;SDS011;8458;52.220;9.884;2023-01-09T06:42:08;1.80;;;1.30;;
16689;SDS011;8458;52.220;9.884;2023-01-09T06:44:36;1.47;;;1.30;;
16689;SDS011;8458;52.220;9.884;2023-01-09T06:47:02;1.57;;;1.47;;
16689;SDS011;8458;52.220;9.884;2023-01-09T06:49:29;1.50;;;1.40;;
16689;SDS011;8458;52.220;9.884;2023-01-09T06:51:56;1.60;;;1.50;;
16689;SDS011;8458;52.220;9.884;2023-01-09T06:54:22;2.10;;;1.90;;
16689;SDS011;8458;52.220;9.884;2023-01-09T06:56:49;1.87;;;1.73;;
16689;SDS011;8458;52.220;9.884;2023-01-09T06:59:15;2.10;;;1.60;;
16689;SDS011;8458;52.220;9.884;2023-01-09T07:01:43;1.83;;;1.73;;
16689;SDS011;8458;52.220;9.884;2023-01-09T07:04:09;2.33;;;1.70;;
16689;SDS011;8458;52.220;9.884;2023-01-09T07:06:36;2.13;;;1.80;;
16689;SDS011;8458;52.220;9.884;2023-01-09T07:09:02;2.03;;;1.93;;
16689;SDS011;8458;52.220;9.884;2023-01-09T07:11:29;1.87;;;1.77;;
16689;SDS011;8458;52.220;9.884;2023-01-09T07:13:56;2.30;;;2.10;;
16689;SDS011;8458;52.220;9.884;2023-01-09T07:16:22;2.47;;;2.33;;
16689;SDS011;8458;52.220;9.884;2023-01-09T07:18:50;3.00;;;2.63;;
16689;SDS011;8458;52.220;9.884;2023-01-09T07:21:18;2.30;;;2.10;;
16689;SDS011;8458;52.220;9.884;2023-01-09T07:23:45;3.50;;;2.57;;
16689;SDS011;8458;52.220;9.884;2023-01-09T07:26:11;3.33;;;3.03;;
16689;SDS011;8458;52.220;9.884;2023-01-09T07:28:37;3.70;;;2.97;;
16689;SDS011;8458;52.220;9.884;2023-01-09T07:31:04;4.07;;;3.70;;
16689;SDS011;8458;52.220;9.884;2023-01-09T07:33:31;3.60;;;3.30;;
16689;SDS011;8458;52.220;9.884;2023-01-09T07:36:00;4.07;;;3.77;;
16689;SDS011;8458;52.220;9.884;2023-01-09T07:38:26;4.43;;;4.03;;
16689;SDS011;8458;52.220;9.884;2023-01-09T07:40:53;4.60;;;4.30;;
16689;SDS011;8458;52.220;9.884;2023-01-09T07:43:19;4.80;;;4.50;;
16689;SDS011;8458;52.220;9.884;2023-01-09T07:45:46;5.13;;;4.73;;
16689;SDS011;8458;52.220;9.884;2023-01-09T07:48:12;5.30;;;4.83;;
16689;SDS011;8458;52.220;9.884;2023-01-09T07:50:39;4.73;;;4.43;;
16689;SDS011;8458;52.220;9.884;2023-01-09T07:53:06;5.00;;;4.60;;
16689;SDS011;8458;52.220;9.884;2023-01-09T07:55:33;4.77;;;4.47;;
16689;SDS011;8458;52.220;9.884;2023-01-09T07:58:00;4.70;;;4.40;;
16689;SDS011;8458;52.220;9.884;2023-01-09T08:00:26;4.37;;;4.10;;
16689;SDS011;8458;52.220;9.884;2023-01-09T08:02:53;4.67;;;4.37;;
16689;SDS011;8458;52.220;9.884;2023-01-09T08:05:19;4.67;;;4.00;;
16689;SDS011;8458;52.220;9.884;2023-01-09T08:07:46;4.13;;;3.80;;
16689;SDS011;8458;52.220;9.884;2023-01-09T08:10:16;4.10;;;3.80;;
16689;SDS011;8458;52.220;9.884;2023-01-09T08:12:44;3.67;;;3.43;;
16689;SDS011;8458;52.220;9.884;2023-01-09T08:15:11;3.37;;;3.10;;
16689;SDS011;8458;52.220;9.884;2023-01-09T08:17:39;3.20;;;2.90;;
16689;SDS011;8458;52.220;9.884;2023-01-09T08:20:07;3.10;;;2.30;;
16689;SDS011;8458;52.220;9.884;2023-01-09T08:22:35;3.60;;;3.30;;
16689;SDS011;8458;52.220;9.884;2023-01-09T08:25:02;3.00;;;2.70;;
16689;SDS011;8458;52.220;9.884;2023-01-09T08:27:31;3.70;;;3.40;;
16689;SDS011;8458;52.220;9.884;2023-01-09T08:29:57;4.80;;;4.00;;
16689;SDS011;8458;52.220;9.884;2023-01-09T08:32:24;3.73;;;3.43;;
16689;SDS011;8458;52.220;9.884;2023-01-09T08:34:50;3.80;;;3.50;;
16689;SDS011;8458;52.220;9.884;2023-01-09T08:37:17;3.13;;;2.83;;
16689;SDS011;8458;52.220;9.884;2023-01-09T08:39:43;3.03;;;2.83;;
16689;SDS011;8458;52.220;9.884;2023-01-09T08:42:10;2.97;;;2.57;;
16689;SDS011;8458;52.220;9.884;2023-01-09T08:44:55;3.47;;;1.87;;
16689;SDS011;8458;52.220;9.884;2023-01-09T08:47:39;3.17;;;2.00;;
16689;SDS011;8458;52.220;9.884;2023-01-09T08:50:06;1.90;;;1.80;;
16689;SDS011;8458;52.220;9.884;2023-01-09T08:52:33;2.50;;;2.30;;
16689;SDS011;8458;52.220;9.884;2023-01-09T08:54:59;3.30;;;1.40;;
16689;SDS011;8458;52.220;9.884;2023-01-09T08:57:26;1.77;;;1.03;;
16689;SDS011;8458;52.220;9.884;2023-01-09T08:59:52;2.20;;;1.00;;
16689;SDS011;8458;52.220;9.884;2023-01-09T09:02:20;1.80;;;0.90;;
16689;SDS011;8458;52.220;9.884;2023-01-09T09:04:46;1.37;;;1.03;;
16689;SDS011;8458;52.220;9.884;2023-01-09T09:07:17;2.20;;;0.80;;
16689;SDS011;8458;52.220;9.884;2023-01-09T09:09:50;4.60;;;1.00;;
16689;SDS011;8458;52.220;9.884;2023-01-09T09:12:16;2.37;;;0.90;;
16689;SDS011;8458;52.220;9.884;2023-01-09T09:14:43;2.07;;;0.93;;
16689;SDS011;8458;52.220;9.884;2023-01-09T09:17:28;2.30;;;1.10;;
16689;SDS011;8458;52.220;9.884;2023-01-09T09:19:56;2.10;;;1.00;;
16689;SDS011;8458;52.220;9.884;2023-01-09T09:22:23;1.87;;;1.03;;
16689;SDS011;8458;52.220;9.884;2023-01-09T09:24:50;2.70;;;1.33;;
16689;SDS011;8458;52.220;9.884;2023-01-09T09:27:16;2.10;;;0.90;;
16689;SDS011;8458;52.220;9.884;2023-01-09T09:29:43;2.57;;;1.00;;
16689;SDS011;8458;52.220;9.884;2023-01-09T09:32:10;2.07;;;1.17;;
16689;SDS011;8458;52.220;9.884;2023-01-09T09:34:38;1.43;;;1.00;;
16689;SDS011;8458;52.220;9.884;2023-01-09T09:37:04;2.50;;;1.10;;
16689;SDS011;8458;52.220;9.884;2023-01-09T09:39:31;2.57;;;1.10;;
16689;SDS011;8458;52.220;9.884;2023-01-09T09:42:02;3.93;;;1.20;;
16689;SDS011;8458;52.220;9.884;2023-01-09T09:45:03;3.00;;;1.20;;
16689;SDS011;8458;52.220;9.884;2023-01-09T09:47:40;1.50;;;1.07;;
16689;SDS011;8458;52.220;9.884;2023-01-09T09:50:18;2.30;;;1.20;;
16689;SDS011;8458;52.220;9.884;2023-01-09T09:52:54;2.70;;;0.93;;
16689;SDS011;8458;52.220;9.884;2023-01-09T09:55:25;1.60;;;0.87;;
16689;SDS011;8458;52.220;9.884;2023-01-09T09:57:56;2.60;;;1.03;;
16689;SDS011;8458;52.220;9.884;2023-01-09T10:00:25;2.73;;;0.80;;
16689;SDS011;8458;52.220;9.884;2023-01-09T10:02:53;1.23;;;0.70;;
16689;SDS011;8458;52.220;9.884;2023-01-09T10:05:27;2.50;;;0.87;;
16689;SDS011;8458;52.220;9.884;2023-01-09T10:07:56;3.43;;;0.83;;
16689;SDS011;8458;52.220;9.884;2023-01-09T10:10:30;1.47;;;0.60;;
16689;SDS011;8458;52.220;9.884;2023-01-09T10:13:00;1.63;;;0.77;;
16689;SDS011;8458;52.220;9.884;2023-01-09T10:15:49;2.33;;;0.80;;
16689;SDS011;8458;52.220;9.884;2023-01-09T10:18:23;2.07;;;0.57;;
16689;SDS011;8458;52.220;9.884;2023-01-09T10:21:00;1.53;;;0.70;;
16689;SDS011;8458;52.220;9.884;2023-01-09T10:23:35;1.33;;;0.60;;
16689;SDS011;8458;52.220;9.884;2023-01-09T10:26:23;2.47;;;0.50;;
16689;SDS011;8458;52.220;9.884;2023-01-09T10:31:55;1.87;;;0.50;;
16689;SDS011;8458;52.220;9.884;2023-01-09T10:34:38;2.60;;;0.60;;
16689;SDS011;8458;52.220;9.884;2023-01-09T10:37:15;1.23;;;0.43;;
16689;SDS011;8458;52.220;9.884;2023-01-09T10:39:47;1.40;;;0.50;;
16689;SDS011;8458;52.220;9.884;2023-01-09T10:42:19;1.07;;;0.40;;
16689;SDS011;8458;52.220;9.884;2023-01-09T10:44:50;0.97;;;0.40;;
16689;SDS011;8458;52.220;9.884;2023-01-09T10:47:23;0.80;;;0.40;;
16689;SDS011;8458;52.220;9.884;2023-01-09T10:49:52;2.00;;;0.60;;
16689;SDS011;8458;52.220;9.884;2023-01-09T10:52:25;2.17;;;0.40;;
16689;SDS011;8458;52.220;9.884;2023-01-09T10:54:59;1.03;;;0.40;;
16689;SDS011;8458;52.220;9.884;2023-01-09T10:57:42;1.23;;;0.50;;
16689;SDS011;8458;52.220;9.884;2023-01-09T11:00:14;0.97;;;0.40;;
16689;SDS011;8458;52.220;9.884;2023-01-09T11:02:43;1.37;;;0.30;;
16689;SDS011;8458;52.220;9.884;2023-01-09T11:05:11;1.40;;;0.30;;
16689;SDS011;8458;52.220;9.884;2023-01-09T11:07:41;0.50;;;0.30;;
16689;SDS011;8458;52.220;9.884;2023-01-09T11:10:12;1.57;;;0.30;;
16689;SDS011;8458;52.220;9.884;2023-01-09T11:12:39;1.77;;;0.40;;
16689;SDS011;8458;52.220;9.884;2023-01-09T11:17:57;0.77;;;0.30;;
16689;SDS011;8458;52.220;9.884;2023-01-09T11:20:42;1.30;;;0.30;;
16689;SDS011;8458;52.220;9.884;2023-01-09T11:23:21;2.07;;;0.50;;
16689;SDS011;8458;52.220;9.884;2023-01-09T11:25:53;1.73;;;0.40;;
16689;SDS011;8458;52.220;9.884;2023-01-09T11:28:21;1.80;;;0.50;;
16689;SDS011;8458;52.220;9.884;2023-01-09T11:30:55;0.83;;;0.30;;
16689;SDS011;8458;52.220;9.884;2023-01-09T11:33:25;1.03;;;0.30;;
16689;SDS011;8458;52.220;9.884;2023-01-09T11:38:48;0.37;;;0.27;;
16689;SDS011;8458;52.220;9.884;2023-01-09T11:41:17;0.50;;;0.30;;
16689;SDS011;8458;52.220;9.884;2023-01-09T11:43:46;0.97;;;0.30;;
16689;SDS011;8458;52.220;9.884;2023-01-09T11:46:31;0.47;;;0.30;;
16689;SDS011;8458;52.220;9.884;2023-01-09T11:49:00;1.10;;;0.30;;
16689;SDS011;8458;52.220;9.884;2023-01-09T11:51:28;1.43;;;0.73;;
16689;SDS011;8458;52.220;9.884;2023-01-09T11:53:59;0.87;;;0.30;;
16689;SDS011;8458;52.220;9.884;2023-01-09T11:56:33;0.87;;;0.30;;
16689;SDS011;8458;52.220;9.884;2023-01-09T11:59:01;1.20;;;0.33;;
16689;SDS011;8458;52.220;9.884;2023-01-09T12:01:36;1.77;;;0.33;;
16689;SDS011;8458;52.220;9.884;2023-01-09T12:04:33;1.03;;;0.47;;
16689;SDS011;8458;52.220;9.884;2023-01-09T12:10:18;0.50;;;0.27;;
16689;SDS011;8458;52.220;9.884;2023-01-09T12:12:59;1.23;;;0.30;;
16689;SDS011;8458;52.220;9.884;2023-01-09T12:15:34;1.03;;;0.40;;
16689;SDS011;8458;52.220;9.884;2023-01-09T12:18:14;0.67;;;0.40;;
16689;SDS011;8458;52.220;9.884;2023-01-09T12:20:52;0.93;;;0.33;;
16689;SDS011;8458;52.220;9.884;2023-01-09T12:23:42;1.90;;;1.17;;
16689;SDS011;8458;52.220;9.884;2023-01-09T12:26:30;2.37;;;1.70;;
16689;SDS011;8458;52.220;9.884;2023-01-09T12:32:12;3.40;;;1.87;;
16689;SDS011;8458;52.220;9.884;2023-01-09T12:34:57;2.70;;;1.97;;
16689;SDS011;8458;52.220;9.884;2023-01-09T12:40:25;1.53;;;0.60;;
16689;SDS011;8458;52.220;9.884;2023-01-09T12:43:07;0.80;;;0.50;;
16689;SDS011;8458;52.220;9.884;2023-01-09T12:45:46;0.57;;;0.40;;
16689;SDS011;8458;52.220;9.884;2023-01-09T12:48:27;1.37;;;0.50;;
16689;SDS011;8458;52.220;9.884;2023-01-09T12:51:20;1.43;;;0.60;;
16689;SDS011;8458;52.220;9.884;2023-01-09T12:53:56;1.43;;;0.70;;
16689;SDS011;8458;52.220;9.884;2023-01-09T12:56:32;1.43;;;0.70;;
16689;SDS011;8458;52.220;9.884;2023-01-09T12:59:18;1.70;;;0.50;;
16689;SDS011;8458;52.220;9.884;2023-01-09T13:01:54;1.00;;;0.40;;
16689;SDS011;8458;52.220;9.884;2023-01-09T13:04:32;0.70;;;0.50;;
16689;SDS011;8458;52.220;9.884;2023-01-09T13:07:08;0.60;;;0.30;;
16689;SDS011;8458;52.220;9.884;2023-01-09T13:09:43;0.73;;;0.30;;
16689;SDS011;8458;52.220;9.884;2023-01-09T13:12:13;1.07;;;0.50;;
16689;SDS011;8458;52.220;9.884;2023-01-09T13:14:48;1.43;;;0.50;;
16689;SDS011;8458;52.220;9.884;2023-01-09T13:17:18;0.90;;;0.40;;
16689;SDS011;8458;52.220;9.884;2023-01-09T13:19:49;1.13;;;0.60;;
16689;SDS011;8458;52.220;9.884;2023-01-09T13:22:17;0.50;;;0.50;;
16689;SDS011;8458;52.220;9.884;2023-01-09T13:24:53;1.13;;;0.57;;
16689;SDS011;8458;52.220;9.884;2023-01-09T13:27:30;1.23;;;0.50;;
16689;SDS011;8458;52.220;9.884;2023-01-09T13:30:07;1.13;;;0.50;;
16689;SDS011;8458;52.220;9.884;2023-01-09T13:32:46;0.40;;;0.30;;
16689;SDS011;8458;52.220;9.884;2023-01-09T13:35:24;0.90;;;0.53;;
16689;SDS011;8458;52.220;9.884;2023-01-09T13:37:51;1.37;;;0.50;;
16689;SDS011;8458;52.220;9.884;2023-01-09T13:40:25;1.07;;;0.50;;
16689;SDS011;8458;52.220;9.884;2023-01-09T13:42:55;0.67;;;0.40;;
16689;SDS011;8458;52.220;9.884;2023-01-09T13:45:25;0.63;;;0.40;;
16689;SDS011;8458;52.220;9.884;2023-01-09T13:50:50;1.10;;;0.40;;
16689;SDS011;8458;52.220;9.884;2023-01-09T13:56:09;0.30;;;0.30;;
16689;SDS011;8458;52.220;9.884;2023-01-09T14:01:43;0.47;;;0.40;;
16689;SDS011;8458;52.220;9.884;2023-01-09T14:07:22;1.13;;;0.40;;
16689;SDS011;8458;52.220;9.884;2023-01-09T14:09:51;0.70;;;0.50;;
16689;SDS011;8458;52.220;9.884;2023-01-09T14:12:21;1.37;;;0.70;;
16689;SDS011;8458;52.220;9.884;2023-01-09T14:14:49;0.70;;;0.50;;
16689;SDS011;8458;52.220;9.884;2023-01-09T14:17:22;1.23;;;0.60;;
16689;SDS011;8458;52.220;9.884;2023-01-09T14:19:55;1.30;;;0.50;;
16689;SDS011;8458;52.220;9.884;2023-01-09T14:22:24;1.20;;;0.53;;
16689;SDS011;8458;52.220;9.884;2023-01-09T14:24:51;1.00;;;0.50;;
16689;SDS011;8458;52.220;9.884;2023-01-09T14:30:33;1.00;;;0.70;;
16689;SDS011;8458;52.220;9.884;2023-01-09T14:33:03;2.33;;;0.90;;
16689;SDS011;8458;52.220;9.884;2023-01-09T14:35:50;1.37;;;0.60;;
16689;SDS011;8458;52.220;9.884;2023-01-09T14:38:25;0.40;;;0.40;;
16689;SDS011;8458;52.220;9.884;2023-01-09T14:40:58;2.50;;;0.50;;
16689;SDS011;8458;52.220;9.884;2023-01-09T14:43:38;1.60;;;0.40;;
16689;SDS011;8458;52.220;9.884;2023-01-09T14:46:11;1.80;;;0.50;;
16689;SDS011;8458;52.220;9.884;2023-01-09T14:48:42;0.50;;;0.43;;
16689;SDS011;8458;52.220;9.884;2023-01-09T14:51:22;0.50;;;0.50;;
16689;SDS011;8458;52.220;9.884;2023-01-09T14:53:51;1.27;;;0.40;;
16689;SDS011;8458;52.220;9.884;2023-01-09T14:56:23;0.97;;;0.60;;
16689;SDS011;8458;52.220;9.884;2023-01-09T14:59:04;0.80;;;0.47;;
16689;SDS011;8458;52.220;9.884;2023-01-09T15:01:32;1.70;;;0.70;;
16689;SDS011;8458;52.220;9.884;2023-01-09T15:04:02;1.53;;;0.60;;
16689;SDS011;8458;52.220;9.884;2023-01-09T15:06:33;0.70;;;0.50;;
16689;SDS011;8458;52.220;9.884;2023-01-09T15:09:02;0.70;;;0.40;;
16689;SDS011;8458;52.220;9.884;2023-01-09T15:11:33;1.03;;;0.40;;
16689;SDS011;8458;52.220;9.884;2023-01-09T15:14:02;0.40;;;0.33;;
16689;SDS011;8458;52.220;9.884;2023-01-09T15:16:31;0.90;;;0.50;;
16689;SDS011;8458;52.220;9.884;2023-01-09T15:18:58;0.43;;;0.43;;
16689;SDS011;8458;52.220;9.884;2023-01-09T15:21:30;3.00;;;2.33;;
16689;SDS011;8458;52.220;9.884;2023-01-09T15:24:09;0.83;;;0.53;;
16689;SDS011;8458;52.220;9.884;2023-01-09T15:26:37;0.60;;;0.40;;
16689;SDS011;8458;52.220;9.884;2023-01-09T15:29:10;0.70;;;0.50;;
16689;SDS011;8458;52.220;9.884;2023-01-09T15:31:41;0.83;;;0.60;;
16689;SDS011;8458;52.220;9.884;2023-01-09T15:34:10;0.87;;;0.37;;
16689;SDS011;8458;52.220;9.884;2023-01-09T15:36:44;1.30;;;0.47;;
16689;SDS011;8458;52.220;9.884;2023-01-09T15:39:13;0.67;;;0.50;;
16689;SDS011;8458;52.220;9.884;2023-01-09T15:41:44;1.00;;;0.50;;
16689;SDS011;8458;52.220;9.884;2023-01-09T15:44:29;1.57;;;0.60;;
16689;SDS011;8458;52.220;9.884;2023-01-09T15:47:00;0.60;;;0.60;;
16689;SDS011;8458;52.220;9.884;2023-01-09T15:49:29;0.97;;;0.70;;
16689;SDS011;8458;52.220;9.884;2023-01-09T15:51:58;1.70;;;0.97;;
16689;SDS011;8458;52.220;9.884;2023-01-09T15:54:27;1.23;;;0.87;;
16689;SDS011;8458;52.220;9.884;2023-01-09T15:59:54;1.70;;;1.30;;
16689;SDS011;8458;52.220;9.884;2023-01-09T16:02:23;1.27;;;1.17;;